Time;durP1;ratioP1;P1;durP2;ratioP2;P2;SDS_P1;SDS_P2;PMS_P1;PMS_P2;Temp;Humidity;BMP_temperature;BMP_pressure;BME280_temperature;BME280_humidity;BME280_pressure;Samples;Min_cycle;Max_cycle;Signal;HPM_P1;HPM_P2
2022/07/16 00:02:51;;;;;;;2.63;0.73;;;;;;;15.41;50.42;100401.44;10553700;28;20059;-76
2022/07/16 00:07:54;;;;;;;1.95;0.63;;;;;;;15.28;51.21;100400.28;10518456;22;20052;-70
2022/07/16 00:12:56;;;;;;;1.90;0.70;;;;;;;15.09;51.34;100393.16;10378908;28;20502;-70
2022/07/16 00:23:18;;;;;;;2.33;1.20;;;;;;;15.29;51.01;100380.81;10378464;28;20050;-70
2022/07/16 00:28:19;;;;;;;2.13;1.00;;;;;;;15.32;51.25;100378.03;10378393;28;20046;-70
2022/07/16 00:33:21;;;;;;;1.92;0.85;;;;;;;15.32;50.75;100380.69;10377937;28;20042;-70
2022/07/16 00:38:23;;;;;;;1.90;0.70;;;;;;;15.16;51.71;100379.66;10377967;28;20503;-70
2022/07/16 00:43:24;;;;;;;1.75;0.70;;;;;;;15.39;51.10;100377.66;10376327;28;20042;-70
2022/07/16 00:48:26;;;;;;;1.13;0.65;;;;;;;15.22;51.77;100372.28;10376219;28;20053;-70
2022/07/16 00:53:28;;;;;;;6.10;0.95;;;;;;;15.04;52.46;100373.09;10377290;28;20060;-70
2022/07/16 00:58:30;;;;;;;1.38;0.70;;;;;;;14.95;53.63;100365.56;10376974;28;20050;-70
2022/07/16 01:03:32;;;;;;;2.80;0.70;;;;;;;14.98;52.71;100368.09;10376501;28;20042;-70
2022/07/16 01:08:36;;;;;;;2.95;1.33;;;;;;;14.85;53.14;100365.13;10375386;28;20057;-70
2022/07/16 01:13:40;;;;;;;0.70;0.70;;;;;;;14.86;53.05;100357.13;10376632;28;20046;-70
2022/07/16 01:18:43;;;;;;;3.28;1.23;;;;;;;14.76;53.72;100361.09;10376447;28;20044;-70
2022/07/16 01:23:47;;;;;;;1.25;0.70;;;;;;;14.68;54.14;100359.72;10376326;28;20048;-70
2022/07/16 01:28:49;;;;;;;1.38;0.70;;;;;;;14.60;54.21;100355.59;10376532;28;20060;-70
2022/07/16 01:39:10;;;;;;;2.78;0.73;;;;;;;14.45;55.12;100353.59;10375702;28;20049;-70
2022/07/16 01:44:12;;;;;;;1.88;0.60;;;;;;;14.54;55.51;100345.28;10375825;28;20492;-69
2022/07/16 01:49:14;;;;;;;1.58;0.60;;;;;;;14.44;55.96;100343.09;10375420;28;20042;-70
2022/07/16 01:54:16;;;;;;;2.25;0.60;;;;;;;14.42;55.67;100342.28;10375302;28;20042;-70
2022/07/16 01:59:17;;;;;;;2.28;0.73;;;;;;;14.41;57.10;100338.78;10375740;28;20053;-70
2022/07/16 02:04:19;;;;;;;1.98;0.60;;;;;;;14.35;56.34;100334.63;10373535;28;20038;-70
2022/07/16 02:09:21;;;;;;;1.15;0.70;;;;;;;14.43;56.06;100338.72;10374557;28;20045;-70
2022/07/16 02:14:23;;;;;;;1.45;0.60;;;;;;;14.41;56.60;100330.84;10374666;28;20451;-70
2022/07/16 02:19:24;;;;;;;1.33;0.68;;;;;;;14.46;56.02;100330.66;10373980;28;20046;-70
2022/07/16 02:24:26;;;;;;;2.78;1.48;;;;;;;14.42;55.80;100329.91;10374359;28;20038;-70
2022/07/16 02:29:28;;;;;;;4.00;0.80;;;;;;;14.36;55.91;100327.53;10375351;28;20458;-70
2022/07/16 02:34:29;;;;;;;1.52;0.65;;;;;;;14.52;55.44;100318.06;10374074;28;20045;-70
2022/07/16 02:39:32;;;;;;;1.83;0.75;;;;;;;14.74;54.31;100320.63;10373964;28;20414;-70
2022/07/16 02:44:34;;;;;;;2.42;0.60;;;;;;;14.76;54.28;100317.91;10373790;28;20038;-70
2022/07/16 02:49:35;;;;;;;1.83;0.77;;;;;;;14.75;54.31;100318.84;10373873;28;20050;-70
2022/07/16 02:54:37;;;;;;;1.05;0.80;;;;;;;14.59;54.64;100319.50;10373787;28;20416;-70
2022/07/16 02:59:39;;;;;;;2.05;0.90;;;;;;;14.54;55.19;100313.56;10373730;28;20053;-70
2022/07/16 03:04:40;;;;;;;1.30;0.80;;;;;;;14.54;55.32;100304.75;10373666;28;20051;-70
2022/07/16 03:09:42;;;;;;;3.50;0.90;;;;;;;14.46;55.57;100293.63;10355992;28;20100;-70
2022/07/16 03:14:45;;;;;;;1.70;0.90;;;;;;;14.42;55.86;100300.81;10373275;28;20062;-70
2022/07/16 03:19:46;;;;;;;1.63;1.20;;;;;;;14.34;56.11;100300.28;10371746;28;20049;-70
2022/07/16 03:24:48;;;;;;;2.33;0.77;;;;;;;14.41;55.67;100298.25;10373189;28;20078;-71
2022/07/16 03:29:50;;;;;;;1.10;0.65;;;;;;;14.39;55.64;100306.28;10376169;28;20125;-72
2022/07/16 03:34:51;;;;;;;2.63;0.60;;;;;;;14.31;55.91;100308.38;10379655;28;20052;-70
2022/07/16 03:39:53;;;;;;;1.45;0.80;;;;;;;14.43;55.97;100314.91;10379392;28;20052;-70
2022/07/16 03:44:54;;;;;;;2.15;0.60;;;;;;;14.33;56.08;100309.16;10380569;28;20042;-70
2022/07/16 03:49:56;;;;;;;1.65;0.60;;;;;;;14.37;55.85;100302.81;10380986;28;20384;-70
2022/07/16 03:54:58;;;;;;;1.88;0.50;;;;;;;14.32;55.88;100307.44;10378380;28;20088;-70
2022/07/16 03:59:59;;;;;;;1.50;0.80;;;;;;;14.20;56.75;100308.81;10362052;28;20050;-70
2022/07/16 04:05:02;;;;;;;2.05;0.90;;;;;;;14.17;57.00;100306.31;10379464;28;20430;-70
2022/07/16 04:10:04;;;;;;;1.88;0.73;;;;;;;14.09;57.14;100304.00;10379052;28;20073;-70
2022/07/16 04:15:06;;;;;;;1.80;0.63;;;;;;;14.14;57.18;100299.38;10379325;28;20042;-70
2022/07/16 04:20:08;;;;;;;1.30;0.80;;;;;;;14.30;57.44;100296.09;10378892;28;20065;-70
2022/07/16 04:25:12;;;;;;;2.10;1.05;;;;;;;14.41;57.48;100292.97;10378631;28;20487;-70
2022/07/16 04:30:16;;;;;;;2.40;0.85;;;;;;;14.71;55.80;100278.41;10379110;28;20038;-70
2022/07/16 04:35:18;;;;;;;3.83;0.82;;;;;;;15.11;54.67;100281.91;10378573;28;20432;-70
2022/07/16 04:40:19;;;;;;;1.15;0.70;;;;;;;15.41;53.61;100281.38;10377529;28;20061;-70
2022/07/16 04:45:21;;;;;;;2.75;0.68;;;;;;;15.60;53.24;100283.06;10378253;28;20061;-71
2022/07/16 04:50:23;;;;;;;2.05;0.55;;;;;;;15.82;52.55;100272.31;10376834;28;20068;-70
2022/07/16 04:55:28;;;;;;;1.55;0.70;;;;;;;16.06;52.39;100269.34;10377203;28;20050;-70
2022/07/16 05:00:30;;;;;;;3.28;0.80;;;;;;;16.43;51.36;100263.03;10380103;28;20403;-70
2022/07/16 05:05:34;;;;;;;2.85;0.77;;;;;;;16.56;50.75;100263.25;10377953;28;20511;-71
2022/07/16 05:10:36;;;;;;;2.17;0.77;;;;;;;16.53;50.51;100255.44;10377544;28;20061;-70
2022/07/16 05:15:38;;;;;;;1.00;0.50;;;;;;;16.58;50.64;100250.75;10377937;28;20049;-72
2022/07/16 05:20:40;;;;;;;1.83;0.65;;;;;;;16.73;50.39;100249.09;10377827;28;20128;-70
2022/07/16 05:25:41;;;;;;;1.23;0.70;;;;;;;16.91;49.60;100250.78;10377586;28;20042;-71
2022/07/16 05:30:43;;;;;;;1.85;0.60;;;;;;;16.98;48.81;100243.31;10376735;28;20504;-71
2022/07/16 05:35:46;;;;;;;1.10;0.80;;;;;;;17.07;48.17;100248.97;10377350;28;20076;-71
2022/07/16 05:40:47;;;;;;;2.17;0.80;;;;;;;17.10;47.90;100253.25;10375948;28;20112;-71
2022/07/16 05:45:49;;;;;;;2.92;1.05;;;;;;;17.13;47.79;100247.75;10376414;28;20045;-71
2022/07/16 05:50:51;;;;;;;2.40;0.63;;;;;;;17.60;46.76;100245.09;10376942;28;20514;-71
2022/07/16 05:55:53;;;;;;;5.80;0.70;;;;;;;18.23;44.98;100241.41;10376615;28;20403;-71
2022/07/16 06:00:54;;;;;;;1.92;0.80;;;;;;;18.59;43.35;100240.13;10417081;28;20491;-71
2022/07/16 06:05:56;;;;;;;2.70;0.60;;;;;;;18.66;42.95;100244.97;10417159;28;20041;-71
2022/07/16 06:10:59;;;;;;;1.95;0.93;;;;;;;18.73;43.01;100242.84;10467380;22;20094;-74
2022/07/16 06:16:01;;;;;;;2.78;0.75;;;;;;;18.67;43.15;100248.50;10498644;28;20072;-73
2022/07/16 06:21:03;;;;;;;1.08;0.50;;;;;;;19.06;42.89;100245.19;10500363;28;20055;-73
2022/07/16 06:26:05;;;;;;;1.67;0.70;;;;;;;18.92;42.00;100247.00;10498790;28;20044;-73
2022/07/16 06:31:07;;;;;;;2.35;0.80;;;;;;;18.71;42.69;100246.53;10502036;28;20131;-74
2022/07/16 06:36:09;;;;;;;1.92;0.70;;;;;;;18.90;42.38;100255.06;10480851;28;20091;-73
2022/07/16 06:41:10;;;;;;;1.83;0.65;;;;;;;19.14;42.21;100245.56;10498640;28;20512;-74
2022/07/16 06:46:16;;;;;;;1.40;0.55;;;;;;;19.08;41.71;100253.94;10482035;28;20076;-73
2022/07/16 06:51:18;;;;;;;2.33;0.68;;;;;;;18.97;43.21;100260.91;10484624;28;20072;-73
2022/07/16 06:56:20;;;;;;;3.40;0.60;;;;;;;18.70;43.24;100269.66;10500414;28;20040;-74
2022/07/16 07:01:23;;;;;;;2.15;0.70;;;;;;;18.49;44.98;100279.75;10481024;28;20049;-72
2022/07/16 07:06:24;;;;;;;2.40;1.00;;;;;;;18.26;47.94;100280.31;10505481;28;20047;-73
2022/07/16 07:11:28;;;;;;;2.65;0.70;;;;;;;18.05;48.21;100271.78;10508598;28;20063;-73
2022/07/16 07:16:30;;;;;;;3.42;0.70;;;;;;;17.94;49.12;100285.72;10489797;28;20033;-73
2022/07/16 07:21:31;;;;;;;1.65;0.90;;;;;;;17.87;50.81;100268.41;10488209;28;20102;-73
2022/07/16 07:26:33;;;;;;;3.05;1.00;;;;;;;18.14;50.76;100271.22;10508021;28;20466;-72
2022/07/16 07:31:35;;;;;;;2.78;0.88;;;;;;;18.41;50.58;100266.06;10508533;28;20041;-76
2022/07/16 07:36:36;;;;;;;1.40;0.50;;;;;;;18.62;50.49;100263.91;10506245;28;20041;-75
2022/07/16 07:41:38;;;;;;;3.15;0.80;;;;;;;18.77;49.70;100264.78;10506179;28;20525;-74
2022/07/16 07:46:40;;;;;;;1.45;0.70;;;;;;;19.30;47.37;100263.22;10504102;28;20041;-74
2022/07/16 07:51:41;;;;;;;3.22;1.00;;;;;;;19.38;45.90;100258.25;10504468;28;20051;-72
2022/07/16 07:56:43;;;;;;;4.45;0.60;;;;;;;19.50;45.28;100261.94;10505120;28;20063;-71
2022/07/16 08:01:45;;;;;;;2.67;0.70;;;;;;;19.53;45.76;100259.06;10504809;28;20076;-72
2022/07/16 08:06:47;;;;;;;2.05;0.68;;;;;;;19.29;46.09;100270.34;10503570;28;20515;-72
2022/07/16 08:11:48;;;;;;;2.33;0.75;;;;;;;19.17;46.17;100260.50;10503017;28;20051;-73
2022/07/16 08:16:51;;;;;;;2.58;0.70;;;;;;;19.05;47.65;100255.94;10486951;28;20045;-72
2022/07/16 08:21:53;;;;;;;2.55;0.70;;;;;;;19.39;46.41;100258.16;10503152;28;20044;-72
2022/07/16 08:26:54;;;;;;;2.78;0.75;;;;;;;19.51;46.02;100253.81;10502699;28;20123;-71
2022/07/16 08:31:56;;;;;;;1.63;0.60;;;;;;;19.49;45.98;100258.41;10503715;28;20405;-72
2022/07/16 08:36:58;;;;;;;2.58;1.25;;;;;;;19.60;46.25;100255.91;10503187;28;20060;-71
2022/07/16 08:42:01;;;;;;;3.63;0.98;;;;;;;19.56;46.28;100250.84;10503834;28;20406;-72
2022/07/16 08:47:04;;;;;;;4.45;0.90;;;;;;;19.44;46.30;100247.19;10503190;28;20036;-73
2022/07/16 08:52:07;;;;;;;2.58;0.70;;;;;;;19.33;46.60;100253.22;10483971;28;20056;-72
2022/07/16 08:57:09;;;;;;;6.38;1.20;;;;;;;19.07;49.97;100270.84;10502646;28;20036;-73
2022/07/16 09:02:12;;;;;;;1.80;0.95;;;;;;;18.36;55.60;100276.97;10504087;28;20044;-75
2022/07/16 09:07:16;;;;;;;4.03;0.98;;;;;;;18.31;57.00;100278.22;10484122;28;20040;-75
2022/07/16 09:12:40;;;;;;;1.77;0.75;;;;;;;18.48;55.90;100270.06;10501223;28;20059;-75
2022/07/16 09:17:41;;;;;;;2.80;0.77;;;;;;;18.50;55.19;100278.81;10501100;28;20044;-70
2022/07/16 09:22:43;;;;;;;4.38;1.13;;;;;;;18.69;54.97;100275.94;10501193;28;20391;-69
2022/07/16 09:27:45;;;;;;;1.92;0.88;;;;;;;19.00;53.51;100274.88;10481631;28;20048;-69
2022/07/16 09:32:46;;;;;;;3.67;0.80;;;;;;;19.13;50.41;100282.97;10501307;28;20561;-70
2022/07/16 09:37:59;;;;;;;1.58;0.93;;;;;;;19.50;49.75;100283.25;10500666;28;20048;-70
2022/07/16 09:43:15;;;;;;;5.60;1.00;;;;;;;19.76;49.29;100282.44;10500824;28;20044;-69
2022/07/16 09:48:20;;;;;;;4.30;0.85;;;;;;;19.48;48.36;100272.72;10487300;28;20072;-69
2022/07/16 09:53:26;;;;;;;3.67;0.98;;;;;;;19.12;49.29;100286.56;10500286;28;20223;-69
2022/07/16 09:58:29;;;;;;;6.13;1.13;;;;;;;18.87;49.99;100303.25;10500391;28;20106;-69
2022/07/16 10:03:31;;;;;;;8.05;1.10;;;;;;;18.57;50.11;100320.09;10500248;28;20292;-70
2022/07/16 10:08:33;;;;;;;2.47;1.10;;;;;;;18.30;54.12;100340.38;10484102;28;20040;-69
2022/07/16 10:13:35;;;;;;;2.92;1.10;;;;;;;18.05;57.96;100349.78;10482995;28;20059;-69
2022/07/16 10:18:41;;;;;;;4.00;1.20;;;;;;;17.74;61.29;100352.47;10499666;28;20524;-69
2022/07/16 10:23:49;;;;;;;1.92;1.20;;;;;;;17.56;61.48;100365.81;10498845;28;20569;-70
2022/07/16 10:28:54;;;;;;;1.80;1.17;;;;;;;17.34;64.04;100378.56;10500995;28;20048;-69
2022/07/16 10:34:37;;;;;;;3.53;1.33;;;;;;;17.32;64.24;100373.34;10481090;28;20043;-70
2022/07/16 10:39:58;;;;;;;4.32;1.50;;;;;;;17.27;63.99;100374.53;10498654;28;20050;-70
2022/07/16 10:45:00;;;;;;;4.22;1.30;;;;;;;17.39;63.94;100379.16;10481409;28;20044;-69
2022/07/16 10:50:19;;;;;;;3.70;1.00;;;;;;;17.43;64.51;100377.22;10499897;28;20041;-70
2022/07/16 10:55:35;;;;;;;3.30;1.15;;;;;;;17.96;62.56;100379.56;10483866;28;20136;-69
2022/07/16 11:00:37;;;;;;;1.10;1.00;;;;;;;18.54;59.75;100365.53;10497911;28;20091;-69
2022/07/16 11:05:39;;;;;;;4.45;1.10;;;;;;;18.98;57.89;100372.66;10497633;28;20043;-70
2022/07/16 11:10:41;;;;;;;2.10;1.00;;;;;;;19.16;56.60;100378.69;10498339;28;20502;-69
2022/07/16 11:15:43;;;;;;;1.95;1.17;;;;;;;18.86;56.52;100368.97;10499078;28;20082;-71
2022/07/16 11:20:45;;;;;;;2.38;1.02;;;;;;;18.64;56.06;100380.03;10498252;28;20119;-70
2022/07/16 11:25:55;;;;;;;2.42;1.25;;;;;;;18.39;57.48;100380.59;10479148;28;20053;-69
2022/07/16 11:31:05;;;;;;;3.53;1.02;;;;;;;18.85;55.81;100379.69;10479890;28;20045;-69
2022/07/16 11:36:27;;;;;;;1.55;1.08;;;;;;;18.92;57.97;100365.06;10497804;28;20380;-69
2022/07/16 11:41:31;;;;;;;2.65;1.25;;;;;;;20.25;54.05;100361.91;10480521;28;20079;-69
2022/07/16 11:46:33;;;;;;;3.50;1.35;;;;;;;21.05;50.67;100345.78;10496885;28;20068;-69
2022/07/16 11:51:41;;;;;;;3.10;1.30;;;;;;;20.55;51.02;100337.66;10501779;28;20048;-68
2022/07/16 11:56:43;;;;;;;1.55;1.10;;;;;;;20.66;50.45;100343.09;10504991;28;20116;-70
2022/07/16 12:01:45;;;;;;;1.33;0.82;;;;;;;20.91;49.37;100330.72;10505102;28;20051;-70
2022/07/16 12:06:47;;;;;;;2.55;0.80;;;;;;;21.24;49.90;100329.28;10485579;28;20056;-71
2022/07/16 12:11:59;;;;;;;2.25;1.38;;;;;;;21.56;46.49;100325.19;10499633;22;20064;-69
2022/07/16 12:17:00;;;;;;;1.45;0.80;;;;;;;22.04;46.80;100322.50;10463413;28;20445;-70
2022/07/16 12:22:02;;;;;;;2.45;0.98;;;;;;;21.94;47.07;100312.63;10462175;28;20045;-69
2022/07/16 12:27:05;;;;;;;1.20;0.80;;;;;;;22.12;44.86;100317.47;10444996;28;20045;-70
2022/07/16 12:32:07;;;;;;;1.52;0.45;;;;;;;21.89;44.10;100324.53;10444423;28;20352;-69
2022/07/16 12:37:14;;;;;;;1.85;0.70;;;;;;;22.43;41.60;100307.09;10462482;28;20043;-70
2022/07/16 12:42:16;;;;;;;1.25;0.50;;;;;;;22.73;41.51;100308.41;10462244;28;20045;-70
2022/07/16 12:47:18;;;;;;;1.35;0.63;;;;;;;22.59;42.23;100313.00;10461845;28;20037;-70
2022/07/16 12:52:20;;;;;;;1.48;0.57;;;;;;;23.10;39.72;100309.03;10461543;28;20052;-70
2022/07/16 13:02:41;;;;;;;1.42;0.43;;;;;;;23.75;37.67;100302.88;10461482;28;20053;-71
2022/07/16 13:07:43;;;;;;;0.98;0.40;;;;;;;23.69;38.20;100302.56;10461262;28;20128;-69
2022/07/16 13:12:45;;;;;;;2.35;0.60;;;;;;;23.41;37.57;100361.94;10443057;28;20414;-70
2022/07/16 13:17:48;;;;;;;3.70;0.80;;;;;;;21.56;43.83;100370.69;10426944;28;20051;-70
2022/07/16 13:22:49;;;;;;;1.70;0.70;;;;;;;20.90;46.71;100375.31;10461437;28;20041;-70
2022/07/16 13:27:51;;;;;;;2.10;0.77;;;;;;;20.40;48.09;100384.88;10460112;28;20045;-69
2022/07/16 13:32:53;;;;;;;1.40;0.80;;;;;;;20.13;49.17;100389.41;10460281;28;20045;-70
2022/07/16 13:37:54;;;;;;;2.10;0.60;;;;;;;20.06;49.00;100391.63;10443730;28;20037;-70
2022/07/16 13:42:56;;;;;;;1.63;0.65;;;;;;;21.01;47.57;100387.91;10459594;28;20119;-70
2022/07/16 13:47:58;;;;;;;0.88;0.43;;;;;;;21.61;46.24;100379.22;10460148;28;20045;-70
2022/07/16 13:53:00;;;;;;;0.95;0.57;;;;;;;21.81;44.81;100384.94;10441598;28;20056;-69
2022/07/16 13:58:14;;;;;;;1.67;0.50;;;;;;;22.02;43.71;100367.28;10458640;28;20049;-70
2022/07/16 14:03:18;;;;;;;2.58;0.80;;;;;;;22.02;43.12;100380.69;10440317;28;20073;-71
2022/07/16 14:08:21;;;;;;;2.17;0.55;;;;;;;21.60;44.25;100381.97;10458174;28;20071;-70
2022/07/16 14:13:25;;;;;;;2.75;0.65;;;;;;;21.52;44.38;100397.75;10424103;28;20052;-71
2022/07/16 14:18:26;;;;;;;1.77;0.60;;;;;;;21.04;45.09;100390.38;10458308;28;20120;-69
2022/07/16 14:23:29;;;;;;;2.95;0.70;;;;;;;21.71;43.91;100389.25;10457720;28;20073;-69
2022/07/16 14:28:31;;;;;;;0.90;0.70;;;;;;;22.47;42.38;100364.00;10463349;28;20081;-69
2022/07/16 14:33:34;;;;;;;0.43;0.43;;;;;;;22.02;41.67;100372.66;10463236;28;20391;-69
2022/07/16 14:38:36;;;;;;;1.95;0.82;;;;;;;21.83;43.28;100383.00;10460637;28;20052;-68
2022/07/16 14:43:38;;;;;;;1.38;0.88;;;;;;;21.64;42.92;100380.78;10456955;28;20411;-69
2022/07/16 14:48:40;;;;;;;1.95;0.70;;;;;;;21.83;41.96;100385.69;10438894;28;20034;-70
2022/07/16 14:53:42;;;;;;;2.22;0.60;;;;;;;21.99;40.25;100402.31;10456983;28;20079;-69
2022/07/16 14:58:44;;;;;;;2.22;0.60;;;;;;;21.47;40.44;100397.19;10457561;28;20072;-69
2022/07/16 15:03:46;;;;;;;3.30;0.70;;;;;;;22.00;39.82;100392.44;10440409;28;20043;-69
2022/07/16 15:08:48;;;;;;;0.98;0.52;;;;;;;21.81;38.86;100390.28;10439148;28;20076;-69
2022/07/16 15:13:50;;;;;;;1.05;0.60;;;;;;;21.78;38.99;100391.38;10456585;28;20044;-69
2022/07/16 15:18:53;;;;;;;1.85;0.45;;;;;;;22.12;38.18;100386.22;10458321;28;20080;-69
2022/07/16 15:23:55;;;;;;;1.35;0.45;;;;;;;22.95;36.19;100391.56;10460002;28;20045;-69
2022/07/16 15:28:57;;;;;;;1.95;0.40;;;;;;;23.60;33.12;100396.22;10465935;28;20041;-69
2022/07/16 15:33:58;;;;;;;1.10;0.40;;;;;;;23.88;33.14;100394.00;10465203;28;20153;-69
2022/07/16 15:39:02;;;;;;;2.88;0.60;;;;;;;23.58;33.87;100402.66;10464391;28;20068;-69
2022/07/16 15:44:09;;;;;;;4.10;0.65;;;;;;;23.41;33.91;100402.19;10467157;28;20525;-69
2022/07/16 15:49:11;;;;;;;1.08;0.40;;;;;;;23.72;33.44;100397.06;10466690;28;20041;-69
2022/07/16 15:54:13;;;;;;;0.98;0.60;;;;;;;23.12;34.46;100401.81;10447948;28;20458;-69
2022/07/16 15:59:15;;;;;;;3.55;0.70;;;;;;;23.53;33.22;100397.69;10463960;28;20117;-69
2022/07/16 16:04:17;;;;;;;2.85;0.60;;;;;;;22.78;34.10;100408.03;10444519;28;20053;-69
2022/07/16 16:09:18;;;;;;;2.03;0.70;;;;;;;22.09;34.34;100419.44;10462169;28;20041;-69
2022/07/16 16:14:20;;;;;;;1.77;0.40;;;;;;;21.83;33.96;100415.13;10461815;28;20045;-69
2022/07/16 16:19:22;;;;;;;1.38;0.60;;;;;;;22.47;33.56;100422.91;10462704;28;20049;-69
2022/07/16 16:24:24;;;;;;;1.70;0.60;;;;;;;22.04;35.22;100431.41;10463054;28;20071;-69
2022/07/16 16:29:26;;;;;;;2.75;0.90;;;;;;;22.11;34.69;100440.72;10464812;28;20487;-69
2022/07/16 16:34:28;;;;;;;2.13;0.73;;;;;;;21.86;34.35;100452.34;10463305;28;20045;-69
2022/07/16 16:39:29;;;;;;;2.28;0.60;;;;;;;21.65;33.38;100446.75;10462229;28;20529;-69
2022/07/16 16:44:32;;;;;;;3.72;1.27;;;;;;;21.79;33.41;100440.41;10461877;28;20053;-69
2022/07/16 16:49:34;;;;;;;1.60;0.75;;;;;;;22.08;32.89;100462.34;10462645;28;20045;-69
2022/07/16 16:54:35;;;;;;;6.40;0.80;;;;;;;21.83;32.72;100482.03;10445294;28;20044;-69
2022/07/16 16:59:38;;;;;;;3.00;0.80;;;;;;;21.62;33.24;100479.06;10463072;28;20579;-69
2022/07/16 17:04:40;;;;;;;2.35;0.80;;;;;;;21.98;32.04;100480.06;10462437;28;20083;-69
2022/07/16 17:09:42;;;;;;;3.67;0.60;;;;;;;21.85;31.98;100472.06;10462219;28;20510;-68
2022/07/16 17:14:44;;;;;;;2.50;1.00;;;;;;;21.50;32.99;100487.94;10462160;28;20037;-69
2022/07/16 17:19:46;;;;;;;2.13;0.63;;;;;;;21.36;32.63;100489.75;10462570;28;20045;-68
2022/07/16 17:24:48;;;;;;;3.15;0.85;;;;;;;21.29;31.96;100499.13;10460876;28;20506;-68
2022/07/16 17:29:50;;;;;;;2.78;1.38;;;;;;;21.11;32.57;100509.25;10443558;28;20045;-69
2022/07/16 17:34:52;;;;;;;1.33;0.70;;;;;;;20.99;32.25;100503.91;10460938;28;20053;-69
2022/07/16 17:39:54;;;;;;;3.65;0.93;;;;;;;20.99;32.14;100514.59;10442878;28;20117;-69
2022/07/16 17:44:56;;;;;;;2.58;0.43;;;;;;;20.96;31.01;100520.13;10460348;28;20037;-69
2022/07/16 17:49:58;;;;;;;2.47;0.60;;;;;;;20.84;30.72;100528.00;10440767;28;20044;-69
2022/07/16 17:55:04;;;;;;;2.17;0.55;;;;;;;20.74;31.02;100529.59;10441208;28;20555;-70
2022/07/16 18:00:08;;;;;;;;;;;;;;;20.69;31.73;100534.38;10460274;28;20072;-69
2022/07/16 18:05:11;;;;;;;2.08;0.75;;;;;;;20.55;32.15;100539.78;10458531;28;19927;-69
2022/07/16 18:10:14;;;;;;;1.48;0.60;;;;;;;20.33;33.32;100540.28;10470198;22;20068;-70
2022/07/16 18:15:17;;;;;;;1.25;0.60;;;;;;;20.39;33.48;100537.19;10500073;28;20040;-70
2022/07/16 18:20:18;;;;;;;2.95;0.90;;;;;;;20.29;33.83;100546.75;10504174;28;20136;-70
2022/07/16 18:25:20;;;;;;;1.90;0.70;;;;;;;20.12;34.47;100555.84;10499386;28;20055;-70
2022/07/16 18:30:22;;;;;;;3.05;0.73;;;;;;;19.89;34.73;100559.94;10500484;28;20044;-70
2022/07/16 18:35:24;;;;;;;4.63;1.00;;;;;;;19.93;35.17;100572.16;10480844;28;20069;-71
2022/07/16 18:40:26;;;;;;;1.58;0.65;;;;;;;19.63;35.28;100581.06;10499005;28;20520;-70
2022/07/16 18:45:27;;;;;;;4.30;0.75;;;;;;;19.44;35.59;100582.25;10500559;28;20041;-70
2022/07/16 18:50:29;;;;;;;1.55;0.60;;;;;;;19.44;35.84;100595.59;10498086;28;20048;-70
2022/07/16 18:55:31;;;;;;;5.10;0.85;;;;;;;19.33;35.59;100605.06;10464352;28;20077;-69
2022/07/16 19:00:35;;;;;;;2.92;0.90;;;;;;;19.19;35.81;100613.00;10503760;28;20378;-69
2022/07/16 19:05:37;;;;;;;1.70;0.70;;;;;;;19.17;36.13;100628.25;10509499;28;20434;-70
2022/07/16 19:10:39;;;;;;;2.75;1.20;;;;;;;18.90;36.80;100623.56;10507276;28;20048;-70
2022/07/16 19:15:42;;;;;;;2.88;1.10;;;;;;;18.67;37.59;100643.44;10489229;28;20098;-70
2022/07/16 19:20:44;;;;;;;2.83;1.40;;;;;;;18.43;37.91;100652.78;10507491;28;20045;-70
2022/07/16 19:25:46;;;;;;;1.58;0.70;;;;;;;18.33;37.75;100659.56;10507430;28;20036;-70
2022/07/16 19:30:47;;;;;;;1.92;0.95;;;;;;;18.68;37.18;100668.25;10507599;28;20374;-69
2022/07/16 19:35:49;;;;;;;2.28;0.88;;;;;;;18.67;37.00;100675.41;10505061;28;20054;-69
2022/07/16 19:40:51;;;;;;;1.70;0.80;;;;;;;18.39;37.62;100684.03;10505177;28;20044;-70
2022/07/16 19:45:52;;;;;;;3.08;0.98;;;;;;;18.38;37.63;100692.97;10486632;28;20086;-69
2022/07/16 19:50:54;;;;;;;1.67;0.70;;;;;;;18.23;37.86;100707.06;10505827;28;20045;-70
2022/07/16 20:01:17;;;;;;;3.40;1.20;;;;;;;17.92;38.74;100702.50;10485816;28;20044;-70
2022/07/16 20:06:21;;;;;;;3.45;0.90;;;;;;;17.83;38.93;100711.81;10504147;28;20142;-70
2022/07/16 20:11:24;;;;;;;2.80;1.17;;;;;;;17.47;39.78;100716.28;10504188;28;20504;-69
2022/07/16 20:16:26;;;;;;;3.42;1.00;;;;;;;17.52;39.46;100728.41;10503366;28;20044;-70
2022/07/16 20:21:37;;;;;;;3.33;0.90;;;;;;;17.42;39.66;100729.81;10503382;28;20041;-70
2022/07/16 20:26:39;;;;;;;2.22;0.90;;;;;;;17.38;39.67;100739.72;10503252;28;20045;-70
2022/07/16 20:31:40;;;;;;;3.35;0.90;;;;;;;17.30;39.75;100746.34;10505084;28;20119;-69
2022/07/16 20:36:42;;;;;;;1.65;0.73;;;;;;;17.00;40.59;100744.25;10485057;28;20048;-71
2022/07/16 20:41:44;;;;;;;1.58;0.80;;;;;;;16.95;40.83;100755.97;10485153;28;20102;-70
2022/07/16 20:46:46;;;;;;;2.47;1.02;;;;;;;16.84;40.73;100756.50;10502468;28;20041;-71
2022/07/16 20:51:48;;;;;;;4.85;0.93;;;;;;;16.92;40.79;100764.97;10503136;28;20047;-70
2022/07/16 20:56:49;;;;;;;3.08;0.90;;;;;;;16.79;41.15;100767.34;10487702;28;20424;-71
2022/07/16 21:01:51;;;;;;;2.33;0.90;;;;;;;16.69;41.45;100783.69;10486035;28;20049;-70
2022/07/16 21:06:53;;;;;;;2.38;1.00;;;;;;;16.56;41.58;100786.06;10502134;28;20070;-70
2022/07/16 21:11:58;;;;;;;2.90;1.00;;;;;;;16.53;41.54;100788.84;10502532;28;20051;-70
2022/07/16 21:17:00;;;;;;;5.07;1.10;;;;;;;16.59;41.56;100797.38;10503398;28;20044;-70
2022/07/16 21:22:02;;;;;;;1.95;0.80;;;;;;;16.50;41.90;100802.25;10502056;28;20094;-70
2022/07/16 21:27:04;;;;;;;2.50;0.93;;;;;;;16.37;42.03;100809.88;10485965;28;20040;-70
2022/07/16 21:32:06;;;;;;;2.65;0.93;;;;;;;16.21;42.38;100817.66;10501096;28;20076;-70
2022/07/16 21:37:09;;;;;;;1.60;0.70;;;;;;;16.10;42.72;100823.38;10504485;28;20033;-70
2022/07/16 21:42:10;;;;;;;3.95;0.60;;;;;;;16.18;42.43;100830.16;10500519;28;20099;-71
2022/07/16 21:47:12;;;;;;;1.67;0.70;;;;;;;16.14;42.59;100832.09;10482364;28;20497;-69
2022/07/16 21:52:14;;;;;;;2.13;0.63;;;;;;;15.97;42.96;100837.22;10500696;28;20036;-69
2022/07/16 21:57:17;;;;;;;4.65;1.30;;;;;;;15.97;43.29;100842.53;10481959;28;20036;-69
2022/07/16 22:02:18;;;;;;;3.72;1.02;;;;;;;15.79;43.72;100852.09;10504490;28;20489;-69
2022/07/16 22:07:20;;;;;;;2.13;0.65;;;;;;;15.59;43.79;100856.38;10483043;28;20037;-69
2022/07/16 22:12:22;;;;;;;2.67;0.90;;;;;;;15.67;43.74;100860.53;10500465;28;20058;-70
2022/07/16 22:17:24;;;;;;;3.95;0.90;;;;;;;15.46;44.43;100870.16;10499188;28;20055;-70
2022/07/16 22:22:25;;;;;;;1.85;0.80;;;;;;;15.64;43.88;100867.69;10501563;28;20461;-70
2022/07/16 22:27:27;;;;;;;2.17;1.00;;;;;;;15.51;44.21;100876.16;10498651;28;20048;-70
2022/07/16 22:32:29;;;;;;;3.50;0.77;;;;;;;15.20;45.53;100890.56;10498706;28;20131;-70
2022/07/16 22:37:31;;;;;;;2.13;0.60;;;;;;;15.30;45.13;100899.03;10498936;28;20072;-70
2022/07/16 22:42:33;;;;;;;1.77;0.57;;;;;;;15.25;44.86;100906.28;10501975;28;20052;-70
2022/07/16 22:47:35;;;;;;;2.58;1.00;;;;;;;15.20;44.89;100901.16;10480994;28;20062;-70
2022/07/16 22:52:37;;;;;;;3.50;0.52;;;;;;;15.07;45.44;100911.31;10499495;28;20055;-70
2022/07/16 22:57:39;;;;;;;2.45;0.82;;;;;;;15.16;45.00;100920.72;10499564;28;20043;-69
2022/07/16 23:02:41;;;;;;;6.18;1.10;;;;;;;14.96;45.62;100923.22;10463718;28;20068;-69
2022/07/16 23:07:43;;;;;;;1.65;0.70;;;;;;;14.58;46.98;100928.06;10500896;28;20086;-69
2022/07/16 23:12:44;;;;;;;2.63;0.90;;;;;;;14.63;46.57;100926.13;10463577;28;20048;-69
2022/07/16 23:17:46;;;;;;;2.78;0.77;;;;;;;14.60;46.84;100920.94;10497831;28;20040;-70
2022/07/16 23:22:48;;;;;;;5.70;0.98;;;;;;;14.50;47.03;100917.75;10498224;28;20037;-70
2022/07/16 23:27:49;;;;;;;2.33;0.90;;;;;;;14.77;46.19;100930.94;10499684;28;20051;-70
2022/07/16 23:32:51;;;;;;;1.63;0.65;;;;;;;14.76;46.38;100929.22;10480573;28;20102;-70